Time;durP1;ratioP1;P1;durP2;ratioP2;P2;SDS_P1;SDS_P2;PMS_P1;PMS_P2;Temp;Humidity;BMP_temperature;BMP_pressure;BME280_temperature;BME280_humidity;BME280_pressure;Samples;Min_cycle;Max_cycle;Signal;HPM_P1;HPM_P2
2022/02/02 00:02:38;;;;;;;;;10.33;8.67;;;;;;;;5119694;28;21615;-76
2022/02/02 00:05:26;;;;;;;;;10.00;9.33;;;;;;;;5119303;28;23075;-76
2022/02/02 00:08:04;;;;;;;;;11.00;9.33;;;;;;;;5119876;28;10403;-76
2022/02/02 00:13:27;;;;;;;;;10.33;8.00;;;;;;;;5122544;28;21390;-76
2022/02/02 00:21:06;;;;;;;;;9.67;9.33;;;;;;;;5123337;28;11287;-78
2022/02/02 00:23:40;;;;;;;;;12.33;10.00;;;;;;;;5123725;28;16517;-78
2022/02/02 00:26:10;;;;;;;;;13.00;7.33;;;;;;;;5122752;28;23653;-78
2022/02/02 00:28:41;;;;;;;;;14.67;10.00;;;;;;;;5123356;28;21455;-78
2022/02/02 00:31:11;;;;;;;;;8.67;8.67;;;;;;;;5122559;28;21428;-78
2022/02/02 00:33:42;;;;;;;;;0.33;0.00;;;;;;;;5123377;28;23937;-78
2022/02/02 00:36:13;;;;;;;;;11.00;10.00;;;;;;;;5122922;28;11361;-79
2022/02/02 00:38:39;;;;;;;;;13.00;9.33;;;;;;;;5122127;28;22776;-78
2022/02/02 00:41:04;;;;;;;;;8.00;8.00;;;;;;;;5122749;28;21515;-79
2022/02/02 00:43:30;;;;;;;;;11.00;8.67;;;;;;;;5123625;28;21617;-79
2022/02/02 00:45:55;;;;;;;;;16.33;8.67;;;;;;;;5123616;28;21326;-78
2022/02/02 00:48:25;;;;;;;;;6.67;5.33;;;;;;;;5123608;28;8856;-78
2022/02/02 00:50:51;;;;;;;;;10.00;9.67;;;;;;;;5121996;28;21939;-78
2022/02/02 00:53:17;;;;;;;;;11.33;8.33;;;;;;;;5122316;28;21587;-77
2022/02/02 00:55:43;;;;;;;;;10.00;10.00;;;;;;;;5122453;28;10798;-78
2022/02/02 00:58:08;;;;;;;;;12.00;10.00;;;;;;;;5122430;28;21601;-78
2022/02/02 01:00:33;;;;;;;;;13.00;8.00;;;;;;;;5123041;28;9399;-78
2022/02/02 01:02:59;;;;;;;;;13.00;11.00;;;;;;;;5122089;28;21372;-77
2022/02/02 01:05:24;;;;;;;;;7.00;7.00;;;;;;;;5123361;28;16247;-78
2022/02/02 01:10:42;;;;;;;;;6.33;6.33;;;;;;;;5122400;28;9769;-78
2022/02/02 01:13:24;;;;;;;;;11.33;9.67;;;;;;;;5122508;28;11586;-78
2022/02/02 01:18:58;;;;;;;;;13.00;11.33;;;;;;;;5123479;28;8797;-76
2022/02/02 01:21:55;;;;;;;;;13.67;9.00;;;;;;;;5121755;28;21505;-77
2022/02/02 01:29:45;;;;;;;;;9.00;8.33;;;;;;;;5122283;28;11333;-77
2022/02/02 01:32:11;;;;;;;;;12.00;9.33;;;;;;;;5103927;28;8824;-76
2022/02/02 01:34:36;;;;;;;;;9.00;7.00;;;;;;;;5122015;28;21736;-76
2022/02/02 01:37:02;;;;;;;;;9.00;9.00;;;;;;;;5121966;28;21445;-77
2022/02/02 01:39:29;;;;;;;;;9.67;7.67;;;;;;;;5121880;28;9537;-77
2022/02/02 01:41:55;;;;;;;;;10.67;10.00;;;;;;;;5122622;28;10521;-78
2022/02/02 01:44:39;;;;;;;;;6.33;6.33;;;;;;;;5102892;28;25404;-77
2022/02/02 01:47:06;;;;;;;;;9.67;6.67;;;;;;;;5121446;28;22541;-76
2022/02/02 01:52:25;;;;;;;;;4.67;4.67;;;;;;;;5121599;28;12760;-77
2022/02/02 01:54:56;;;;;;;;;10.33;9.67;;;;;;;;5121872;28;12928;-76
2022/02/02 02:00:07;;;;;;;;;7.67;7.67;;;;;;;;5120916;28;22286;-75
2022/02/02 02:02:35;;;;;;;;;12.33;7.00;;;;;;;;5121407;28;11546;-75
2022/02/02 02:05:00;;;;;;;;;9.67;7.67;;;;;;;;5121691;28;21436;-75
2022/02/02 02:07:26;;;;;;;;;10.00;7.00;;;;;;;;5121292;28;21262;-75
2022/02/02 02:09:53;;;;;;;;;9.33;9.00;;;;;;;;5121150;28;21327;-75
2022/02/02 02:12:18;;;;;;;;;10.00;9.33;;;;;;;;5121105;28;21877;-75
2022/02/02 02:14:57;;;;;;;;;12.00;9.33;;;;;;;;5121356;28;21359;-75
2022/02/02 02:17:25;;;;;;;;;10.67;10.67;;;;;;;;5122022;28;8777;-75
2022/02/02 02:19:51;;;;;;;;;12.00;12.00;;;;;;;;5102134;28;24610;-75
2022/02/02 02:22:23;;;;;;;;;16.00;13.67;;;;;;;;5121153;28;12035;-75
2022/02/02 02:24:49;;;;;;;;;12.00;10.00;;;;;;;;5121552;28;11977;-75
2022/02/02 02:27:17;;;;;;;;;11.67;9.67;;;;;;;;5120961;28;11739;-75
2022/02/02 02:32:37;;;;;;;;;20.00;12.00;;;;;;;;5120411;28;22708;-74
2022/02/02 02:56:27;;;;;;;;;11.67;11.00;;;;;;;;5119747;28;21382;-76
2022/02/02 02:59:13;;;;;;;;;9.67;9.67;;;;;;;;5120623;28;11853;-74
2022/02/02 03:31:30;;;;;;;;;11.67;11.00;;;;;;;;5119796;28;11408;-75
2022/02/02 03:58:34;;;;;;;;;12.50;11.75;;;;;;;;5120187;28;10513;-77
2022/02/02 04:06:28;;;;;;;;;17.50;12.00;;;;;;;;5119778;28;8897;-77
2022/02/02 04:08:54;;;;;;;;;12.25;10.50;;;;;;;;5100928;28;10674;-76
2022/02/02 05:00:19;;;;;;;;;17.25;13.00;;;;;;;;5122741;28;8806;-77
2022/02/02 05:05:19;;;;;;;;;12.50;12.00;;;;;;;;5121703;28;8976;-74
2022/02/02 05:10:39;;;;;;;;;16.25;14.25;;;;;;;;5122671;28;9739;-78
2022/02/02 05:43:07;;;;;;;;;10.50;10.50;;;;;;;;5129336;27;22164;-78
2022/02/02 05:53:27;;;;;;;;;18.75;15.25;;;;;;;;5132474;27;9211;-79
2022/02/02 05:55:53;;;;;;;;;15.50;15.50;;;;;;;;5113448;27;11850;-77
2022/02/02 05:58:25;;;;;;;;;19.50;18.25;;;;;;;;5132056;27;11361;-76
2022/02/02 06:00:52;;;;;;;;;23.00;15.50;;;;;;;;5129487;27;12635;-84
2022/02/02 06:03:19;;;;;;;;;19.25;14.00;;;;;;;;5130261;27;13273;-82
2022/02/02 06:05:44;;;;;;;;;15.00;14.75;;;;;;;;5131288;27;13291;-82
2022/02/02 09:42:30;;;;;;;;;34.50;31.25;;;;;;;;5216449;27;78944;-81
2022/02/02 09:44:58;;;;;;;;;39.50;32.50;;;;;;;;5199363;27;22583;-81
2022/02/02 09:47:29;;;;;;;;;43.33;35.33;;;;;;;;5180171;27;14154;-81
2022/02/02 09:50:00;;;;;;;;;38.75;36.25;;;;;;;;5180098;27;13675;-80
2022/02/02 09:52:33;;;;;;;;;44.50;39.25;;;;;;;;5199380;27;12633;-81
2022/02/02 10:08:07;;;;;;;;;53.25;44.75;;;;;;;;5184946;27;11467;-77
2022/02/02 10:13:16;;;;;;;;;42.33;40.67;;;;;;;;5186867;27;8821;-76
2022/02/02 10:15:43;;;;;;;;;67.00;54.25;;;;;;;;5185383;27;13685;-78
2022/02/02 10:18:13;;;;;;;;;66.50;54.25;;;;;;;;5172702;27;15187;-75
2022/02/02 10:20:39;;;;;;;;;39.33;36.67;;;;;;;;5179608;27;9202;-77
2022/02/02 10:23:05;;;;;;;;;137.25;121.00;;;;;;;;5198730;27;13825;-76
2022/02/02 10:25:38;;;;;;;;;39.25;36.25;;;;;;;;5187031;27;24669;-85
2022/02/02 10:28:19;;;;;;;;;45.33;38.00;;;;;;;;5186869;27;24734;-78
2022/02/02 10:30:54;;;;;;;;;45.00;40.33;;;;;;;;5183412;27;13480;-78
2022/02/02 10:33:21;;;;;;;;;52.00;41.33;;;;;;;;5187656;27;12613;-82
2022/02/02 10:35:47;;;;;;;;;47.33;37.00;;;;;;;;5184300;27;10423;-80
2022/02/02 10:38:16;;;;;;;;;37.33;36.00;;;;;;;;5186632;27;13369;-79
2022/02/02 10:41:01;;;;;;;;;48.33;41.33;;;;;;;;5184510;27;10594;-73
2022/02/02 10:43:54;;;;;;;;;41.00;37.67;;;;;;;;5168600;27;15453;-73
2022/02/02 10:46:17;;;;;;;;;37.33;33.67;;;;;;;;5175898;27;12267;-72
2022/02/02 10:48:49;;;;;;;;;38.00;38.00;;;;;;;;5176345;27;12624;-72
2022/02/02 10:51:21;;;;;;;;;34.00;31.67;;;;;;;;5187453;27;11671;-75
2022/02/02 10:55:02;;;;;;;;;31.00;29.00;;;;;;;;5173745;27;12860;-76
2022/02/02 10:57:02;;;;;;;;;39.00;37.67;;;;;;;;5170722;27;12847;-78
2022/02/02 10:59:38;;;;;;;;;39.00;35.00;;;;;;;;5173833;27;12294;-76
2022/02/02 11:07:17;;;;;;;;;35.00;31.00;;;;;;;;5173681;27;11393;-77
2022/02/02 11:09:49;;;;;;;;;36.67;33.33;;;;;;;;5154465;27;12879;-79
2022/02/02 11:12:16;;;;;;;;;33.33;31.00;;;;;;;;5131685;27;13738;-71
2022/02/02 11:14:44;;;;;;;;;33.67;31.33;;;;;;;;5163178;27;11737;-74
2022/02/02 11:17:29;;;;;;;;;35.75;31.00;;;;;;;;5175050;27;11619;-72
2022/02/02 11:19:59;;;;;;;;;34.50;28.00;;;;;;;;5165282;27;13508;-72
2022/02/02 11:22:32;;;;;;;;;32.25;31.00;;;;;;;;5184229;27;11772;-72
2022/02/02 11:25:03;;;;;;;;;31.25;28.00;;;;;;;;5184762;27;12330;-72
2022/02/02 11:27:31;;;;;;;;;33.50;29.00;;;;;;;;5184061;27;11296;-74
2022/02/02 11:29:57;;;;;;;;;27.75;26.50;;;;;;;;5173862;27;10774;-72
2022/02/02 11:32:22;;;;;;;;;26.50;24.00;;;;;;;;5154326;27;15413;-72
2022/02/02 11:35:07;;;;;;;;;23.25;22.25;;;;;;;;5171801;27;12488;-72
2022/02/02 11:37:53;;;;;;;;;26.25;25.50;;;;;;;;5181039;27;13466;-72
2022/02/02 11:40:20;;;;;;;;;27.25;26.75;;;;;;;;5183299;27;11488;-74
2022/02/02 11:45:42;;;;;;;;;26.25;25.25;;;;;;;;5183850;27;11405;-76
2022/02/02 11:48:19;;;;;;;;;27.50;24.25;;;;;;;;5170015;27;12618;-74
2022/02/02 11:50:46;;;;;;;;;20.50;20.50;;;;;;;;5183828;27;13179;-75
2022/02/02 11:53:12;;;;;;;;;27.25;25.50;;;;;;;;5184024;27;11989;-76
2022/02/02 11:55:42;;;;;;;;;25.00;22.00;;;;;;;;5183975;27;12275;-75
2022/02/02 11:58:18;;;;;;;;;12.00;11.00;;;;;;;;5171936;27;11492;-75
2022/02/02 12:00:52;;;;;;;;;15.50;15.50;;;;;;;;5171225;27;11546;-75
2022/02/02 12:03:38;;;;;;;;;26.00;23.75;;;;;;;;5162800;27;11639;-77
2022/02/02 12:06:20;;;;;;;;;30.25;26.50;;;;;;;;5141662;27;15502;-76
2022/02/02 12:09:04;;;;;;;;;17.00;15.25;;;;;;;;5160699;27;13417;-74
2022/02/02 13:00:14;;;;;;;;;10.75;10.75;;;;;;;;5182053;27;23435;-73
2022/02/02 13:02:45;;;;;;;;;13.75;11.50;;;;;;;;5171053;27;22621;-73
2022/02/02 13:05:11;;;;;;;;;12.00;12.00;;;;;;;;5173946;27;11638;-72
2022/02/02 13:07:38;;;;;;;;;8.50;8.00;;;;;;;;5160260;27;11937;-72
2022/02/02 13:10:05;;;;;;;;;10.00;10.00;;;;;;;;5160290;27;22896;-73
2022/02/02 13:12:39;;;;;;;;;13.50;10.50;;;;;;;;5160986;27;23589;-72
2022/02/02 13:17:47;;;;;;;;;6.50;6.00;;;;;;;;5160344;27;22224;-79
2022/02/02 13:20:16;;;;;;;;;8.50;7.75;;;;;;;;5161190;27;11424;-72
2022/02/02 13:22:47;;;;;;;;;8.00;6.00;;;;;;;;5161447;27;12292;-72
2022/02/02 13:25:19;;;;;;;;;6.00;5.00;;;;;;;;5160551;27;11438;-72
2022/02/02 13:27:49;;;;;;;;;7.00;4.00;;;;;;;;5160857;27;11626;-72
2022/02/02 13:30:54;;;;;;;;;6.00;6.00;;;;;;;;5161357;27;11456;-71
2022/02/02 13:33:33;;;;;;;;;5.25;5.25;;;;;;;;5064776;28;11552;-71
2022/02/02 13:36:32;;;;;;;;;8.50;5.50;;;;;;;;5075848;28;11651;-72
2022/02/02 13:44:36;;;;;;;;;6.00;6.00;;;;;;;;5076373;28;11340;-75
2022/02/02 13:50:24;;;;;;;;;3.00;3.00;;;;;;;;5160417;27;11418;-73
2022/02/02 13:53:05;;;;;;;;;5.25;3.00;;;;;;;;5158826;27;12590;-73
2022/02/02 13:55:46;;;;;;;;;7.00;5.00;;;;;;;;5162142;27;11462;-73
2022/02/02 14:06:35;;;;;;;;;5.50;5.50;;;;;;;;5180405;27;21375;-73
2022/02/02 14:25:38;;;;;;;;;6.25;5.00;;;;;;;;5181209;27;11450;-74
2022/02/02 14:26:05;;;;;;;;;7.00;5.50;;;;;;;;5160512;27;11506;-73
2022/02/02 14:33:33;;;;;;;;;5.50;5.50;;;;;;;;5163523;27;11563;-72
2022/02/02 14:36:02;;;;;;;;;5.00;4.00;;;;;;;;5164158;27;9011;-73
2022/02/02 14:38:38;;;;;;;;;5.00;2.00;;;;;;;;5163719;27;10524;-73
2022/02/02 14:41:16;;;;;;;;;7.50;4.75;;;;;;;;5163711;27;11486;-73
2022/02/02 14:43:58;;;;;;;;;7.00;6.25;;;;;;;;5164654;27;11577;-72
2022/02/02 14:46:32;;;;;;;;;10.00;8.00;;;;;;;;5172626;27;12186;-73
2022/02/02 14:49:06;;;;;;;;;7.00;7.00;;;;;;;;5144809;27;25003;-72
2022/02/02 15:24:01;;;;;;;;;7.25;6.50;;;;;;;;5163212;27;11423;-73
2022/02/02 15:29:18;;;;;;;;;5.00;5.00;;;;;;;;5163106;27;12220;-74
2022/02/02 15:31:44;;;;;;;;;9.75;6.00;;;;;;;;5162772;27;11433;-74
2022/02/02 15:34:15;;;;;;;;;7.00;7.00;;;;;;;;5183606;27;12152;-73
2022/02/02 15:39:13;;;;;;;;;7.25;5.75;;;;;;;;5183370;27;11498;-73
2022/02/02 15:42:04;;;;;;;;;10.75;6.75;;;;;;;;5183494;27;11994;-73
2022/02/02 16:05:42;;;;;;;;;9.25;8.75;;;;;;;;5182678;27;21314;-72
2022/02/02 16:08:09;;;;;;;;;5.75;5.75;;;;;;;;5182612;27;11397;-72
2022/02/02 16:11:16;;;;;;;;;6.25;6.25;;;;;;;;5161055;27;12146;-74
2022/02/02 16:13:41;;;;;;;;;9.50;6.75;;;;;;;;5174490;27;11463;-72
2022/02/02 16:16:15;;;;;;;;;9.75;6.00;;;;;;;;5180611;27;11450;-75
2022/02/02 16:37:56;;;;;;;;;14.00;11.50;;;;;;;;5055190;28;23643;-75
2022/02/02 16:40:31;;;;;;;;;14.25;11.00;;;;;;;;5054871;28;11645;-74
2022/02/02 16:43:13;;;;;;;;;31.00;27.00;;;;;;;;5055848;28;11441;-78
2022/02/02 16:45:39;;;;;;;;;17.75;15.00;;;;;;;;5036460;28;14756;-77
2022/02/02 16:48:04;;;;;;;;;10.00;9.50;;;;;;;;5025192;28;12927;-74
2022/02/02 16:50:34;;;;;;;;;11.50;10.75;;;;;;;;5038702;28;23493;-74
2022/02/02 16:53:05;;;;;;;;;15.00;11.00;;;;;;;;5056688;28;21495;-81
2022/02/02 16:58:23;;;;;;;;;11.75;11.00;;;;;;;;5056722;28;12221;-75
2022/02/02 17:30:36;;;;;;;;;29.75;24.75;;;;;;;;5180176;27;12543;-82
2022/02/02 17:56:02;;;;;;;;;25.50;23.75;;;;;;;;5180554;27;12265;-74
2022/02/02 18:00:16;;;;;;;;;31.25;23.00;;;;;;;;5180654;27;11590;-73
2022/02/02 18:13:50;;;;;;;;;35.75;28.50;;;;;;;;5173187;27;10347;-77
2022/02/02 18:20:48;;;;;;;;;33.00;31.75;;;;;;;;5182820;27;11499;-78
2022/02/02 18:25:48;;;;;;;;;30.25;27.75;;;;;;;;5182575;27;13394;-74
2022/02/02 18:35:40;;;;;;;;;37.75;28.25;;;;;;;;5182708;27;13242;-73
2022/02/02 18:48:28;;;;;;;;;32.00;28.33;;;;;;;;5181139;27;11615;-75
2022/02/02 18:56:33;;;;;;;;;25.25;25.25;;;;;;;;5181740;27;11509;-72
2022/02/02 18:59:19;;;;;;;;;31.50;26.75;;;;;;;;5180989;27;13605;-71
2022/02/02 20:06:07;;;;;;;;;30.67;29.00;;;;;;;;5170887;27;9284;-74
2022/02/02 20:08:45;;;;;;;;;27.00;26.00;;;;;;;;5170906;27;12473;-74
2022/02/02 20:11:17;;;;;;;;;37.67;35.33;;;;;;;;5169628;27;12662;-77
2022/02/02 20:13:43;;;;;;;;;32.67;28.67;;;;;;;;5170758;27;13776;-78
2022/02/02 20:16:08;;;;;;;;;36.33;29.00;;;;;;;;5152913;27;14127;-77
2022/02/02 20:18:38;;;;;;;;;37.00;33.00;;;;;;;;5168371;27;11921;-79
2022/02/02 20:21:07;;;;;;;;;36.67;30.67;;;;;;;;5151205;27;13484;-78
2022/02/02 20:23:32;;;;;;;;;37.33;32.00;;;;;;;;5178786;27;11464;-78
2022/02/02 20:25:58;;;;;;;;;34.33;31.00;;;;;;;;5182000;27;11553;-77
2022/02/02 20:28:23;;;;;;;;;36.33;29.33;;;;;;;;5183257;27;8791;-78
2022/02/02 20:30:48;;;;;;;;;35.67;31.33;;;;;;;;5182129;27;12366;-77
2022/02/02 20:33:14;;;;;;;;;30.00;29.00;;;;;;;;5182701;27;11670;-77
2022/02/02 20:35:39;;;;;;;;;36.67;28.33;;;;;;;;5163198;27;14231;-76
2022/02/02 20:38:05;;;;;;;;;26.67;24.67;;;;;;;;5182412;27;12635;-78
2022/02/02 20:40:31;;;;;;;;;29.00;23.33;;;;;;;;5182030;27;13708;-77
2022/02/02 20:43:06;;;;;;;;;31.33;30.00;;;;;;;;5182392;27;11562;-77
2022/02/02 21:14:45;;;;;;;;;39.00;36.00;;;;;;;;5181779;27;13300;-77
2022/02/02 21:17:21;;;;;;;;;37.00;35.67;;;;;;;;5162021;27;13758;-77
2022/02/02 21:20:06;;;;;;;;;43.67;37.00;;;;;;;;5181253;27;11978;-75
2022/02/02 21:22:34;;;;;;;;;37.67;31.00;;;;;;;;5180982;27;13322;-77
2022/02/02 21:25:19;;;;;;;;;39.33;35.33;;;;;;;;5181043;27;10537;-77
2022/02/02 21:27:45;;;;;;;;;44.67;39.33;;;;;;;;5162281;27;11899;-77
2022/02/02 21:30:10;;;;;;;;;44.67;40.00;;;;;;;;5180640;27;12286;-75
2022/02/02 21:32:36;;;;;;;;;36.33;31.67;;;;;;;;5181244;27;10190;-77
2022/02/02 21:35:06;;;;;;;;;37.67;36.00;;;;;;;;5181076;27;13371;-77
2022/02/02 21:37:34;;;;;;;;;34.67;29.00;;;;;;;;5180786;27;11721;-75
2022/02/02 21:40:17;;;;;;;;;39.00;34.33;;;;;;;;5181161;27;9865;-78
2022/02/02 21:42:46;;;;;;;;;88.50;69.00;;;;;;;;5181308;27;13577;-77
2022/02/02 21:45:12;;;;;;;;;95.00;77.25;;;;;;;;5180748;27;13546;-76
2022/02/02 21:47:37;;;;;;;;;57.33;47.00;;;;;;;;5162516;27;13679;-76
2022/02/02 21:50:07;;;;;;;;;38.67;34.00;;;;;;;;5180274;27;13396;-75
2022/02/02 21:52:33;;;;;;;;;42.67;37.00;;;;;;;;5180976;27;12304;-77
2022/02/02 21:54:58;;;;;;;;;32.33;28.67;;;;;;;;5155031;27;12061;-79
2022/02/02 21:57:23;;;;;;;;;39.67;32.00;;;;;;;;5160563;27;13250;-77
2022/02/02 21:59:49;;;;;;;;;33.00;30.67;;;;;;;;5173169;27;12200;-76
2022/02/02 22:02:14;;;;;;;;;40.00;32.33;;;;;;;;5181500;27;11544;-76
2022/02/02 22:04:39;;;;;;;;;40.00;31.00;;;;;;;;5162260;27;15374;-73
2022/02/02 22:07:05;;;;;;;;;37.33;32.67;;;;;;;;5181277;27;8863;-74
2022/02/02 22:09:30;;;;;;;;;28.67;28.00;;;;;;;;5181065;27;13241;-73
2022/02/02 22:11:55;;;;;;;;;37.33;31.67;;;;;;;;5180813;27;14065;-73
2022/02/02 22:14:22;;;;;;;;;35.67;34.67;;;;;;;;5180684;27;13208;-73
2022/02/02 22:16:49;;;;;;;;;41.00;37.00;;;;;;;;5180709;27;10419;-76
2022/02/02 22:19:14;;;;;;;;;36.67;31.33;;;;;;;;5181091;27;13902;-74
2022/02/02 22:21:40;;;;;;;;;34.00;30.33;;;;;;;;5161859;27;15378;-75
2022/02/02 22:24:05;;;;;;;;;34.00;34.00;;;;;;;;5162004;27;13489;-74
2022/02/02 22:26:31;;;;;;;;;44.00;33.67;;;;;;;;5181204;27;9387;-74
2022/02/02 22:28:56;;;;;;;;;35.33;31.33;;;;;;;;5180592;27;13302;-74
2022/02/02 22:31:22;;;;;;;;;34.33;33.33;;;;;;;;5180404;27;13775;-74
2022/02/02 22:33:47;;;;;;;;;33.00;31.33;;;;;;;;5180744;27;8760;-74
2022/02/02 22:36:13;;;;;;;;;30.33;26.67;;;;;;;;5181379;27;10342;-74
2022/02/02 22:38:40;;;;;;;;;39.33;32.67;;;;;;;;5180977;27;12667;-75
2022/02/02 22:41:05;;;;;;;;;31.00;28.33;;;;;;;;5180620;27;9611;-75
2022/02/02 22:43:33;;;;;;;;;24.00;21.33;;;;;;;;5180173;27;12299;-76
2022/02/02 22:45:59;;;;;;;;;34.00;30.00;;;;;;;;5181115;27;11596;-75
2022/02/02 22:48:26;;;;;;;;;33.33;28.67;;;;;;;;5162160;27;14285;-75
2022/02/02 22:50:52;;;;;;;;;29.67;25.67;;;;;;;;5183590;27;13965;-75
2022/02/02 22:53:21;;;;;;;;;33.67;30.33;;;;;;;;5164420;27;12922;-76
2022/02/02 22:55:46;;;;;;;;;33.67;29.00;;;;;;;;5184212;27;13415;-74
2022/02/02 22:58:11;;;;;;;;;38.00;31.00;;;;;;;;5183749;27;10675;-73
2022/02/02 23:00:38;;;;;;;;;29.33;26.00;;;;;;;;5184124;27;11345;-74
2022/02/02 23:03:07;;;;;;;;;23.67;17.00;;;;;;;;5184479;27;12347;-74
2022/02/02 23:05:41;;;;;;;;;30.00;24.33;;;;;;;;5165290;27;13938;-74
2022/02/02 23:08:08;;;;;;;;;29.33;29.00;;;;;;;;5164419;27;13760;-74
2022/02/02 23:10:35;;;;;;;;;22.33;20.67;;;;;;;;5164883;27;15576;-75
2022/02/02 23:13:01;;;;;;;;;29.33;29.33;;;;;;;;5183715;27;12737;-74
2022/02/02 23:15:34;;;;;;;;;29.00;26.33;;;;;;;;5164573;27;13166;-75
2022/02/02 23:18:10;;;;;;;;;25.33;25.33;;;;;;;;5183943;27;9607;-74
2022/02/02 23:20:35;;;;;;;;;24.33;19.00;;;;;;;;5183949;27;10462;-74
2022/02/02 23:23:02;;;;;;;;;34.00;26.67;;;;;;;;5183009;27;12602;-74
2022/02/02 23:25:29;;;;;;;;;29.00;26.00;;;;;;;;5184158;27;14047;-74
2022/02/02 23:27:55;;;;;;;;;37.67;33.67;;;;;;;;5164222;27;15258;-74
2022/02/02 23:30:21;;;;;;;;;33.33;30.33;;;;;;;;5183667;27;13289;-74
2022/02/02 23:32:47;;;;;;;;;41.33;34.67;;;;;;;;5183381;27;13056;-74
2022/02/02 23:35:15;;;;;;;;;36.67;33.67;;;;;;;;5183420;27;13387;-74
2022/02/02 23:37:40;;;;;;;;;43.67;36.33;;;;;;;;5182503;27;12625;-74
2022/02/02 23:40:07;;;;;;;;;36.00;30.00;;;;;;;;5182905;27;14480;-74
2022/02/02 23:42:36;;;;;;;;;38.33;29.00;;;;;;;;5164482;27;14583;-74
2022/02/02 23:45:02;;;;;;;;;39.00;33.00;;;;;;;;5183883;27;11470;-74
2022/02/02 23:47:29;;;;;;;;;34.00;32.00;;;;;;;;5164666;27;13693;-73
2022/02/02 23:50:00;;;;;;;;;43.33;34.67;;;;;;;;5183352;27;8779;-74
2022/02/02 23:52:28;;;;;;;;;7.67;2.00;;;;;;;;5183035;27;13514;-73
2022/02/02 23:54:55;;;;;;;;;36.33;31.67;;;;;;;;5163802;27;24062;-73
2022/02/02 23:57:33;;;;;;;;;28.00;24.67;;;;;;;;5182848;27;22836;-73
